Pickwick Observed Data For Previous 48 Hours

Caption
Day and Hour Reservoir Elevation (behind dam)* Tailwater Elevation (below dam)* Average Hourly Discharge*
4/22/2018 1 AM CDT 413.23 366.82 80,096
4/22/2018 2 AM CDT 413.20 366.87 79,914
4/22/2018 3 AM CDT 413.25 366.92 79,889
4/22/2018 4 AM CDT 413.20 366.86 79,837
4/22/2018 5 AM CDT 413.19 366.81 80,047
4/22/2018 6 AM CDT 413.21 366.80 79,807
4/22/2018 7 AM CDT 413.19 366.80 79,691
4/22/2018 8 AM CDT 413.16 366.85 80,016
4/22/2018 9 AM CDT 413.18 366.83 80,156
4/22/2018 10 AM CDT 413.20 366.83 80,172
4/22/2018 11 AM CDT 413.26 366.82 80,245
4/22/2018 12 PM CDT 413.19 366.82 80,388
4/22/2018 1 PM CDT 413.24 366.87 80,298
4/22/2018 2 PM CDT 413.25 366.89 80,412
4/22/2018 3 PM CDT 413.20 366.85 80,350
4/22/2018 4 PM CDT 413.20 366.89 80,414
4/22/2018 5 PM CDT 413.19 366.86 80,155
4/22/2018 6 PM CDT 413.25 366.84 80,225
4/22/2018 7 PM CDT 413.14 366.94 80,437
4/22/2018 8 PM CDT 413.24 366.95 80,583
4/22/2018 9 PM CDT 413.36 367.02 80,537
4/22/2018 10 PM CDT 413.41 367.10 80,555
4/22/2018 11 PM CDT 413.44 367.20 80,672
4/23/2018 12 AM CDT 413.53 367.34 80,776
4/23/2018 1 AM CDT 413.60 367.47 80,889
4/23/2018 2 AM CDT 413.70 367.60 81,065
4/23/2018 3 AM CDT 413.77 367.75 81,159
4/23/2018 4 AM CDT 413.86 367.83 81,137
4/23/2018 5 AM CDT 413.89 368.00 81,098
4/23/2018 6 AM CDT 414.02 368.09 81,270
4/23/2018 7 AM CDT 414.06 368.21 81,063
4/23/2018 8 AM CDT 414.13 368.30 81,168
4/23/2018 9 AM CDT 414.13 368.46 81,283
4/23/2018 10 AM CDT 414.15 368.55 81,490
4/23/2018 11 AM CDT 414.09 368.86 85,104
4/23/2018 12 PM CDT 414.18 369.16 90,453
4/23/2018 1 PM CDT 414.09 369.31 90,388
4/23/2018 2 PM CDT 414.17 369.98 102,912
4/23/2018 3 PM CDT 414.29 370.32 104,921
4/23/2018 4 PM CDT 414.36 370.50 104,972
4/23/2018 5 PM CDT 414.39 370.60 105,309
4/23/2018 6 PM CDT 414.52 370.70 105,833
4/23/2018 7 PM CDT 414.57 370.84 105,887
4/23/2018 8 PM CDT 414.74 370.89 106,070
4/23/2018 9 PM CDT 414.81 370.98 106,424
4/23/2018 10 PM CDT 414.95 371.00 106,769
4/23/2018 11 PM CDT 415.03 371.05 107,001
4/24/2018 12 AM CDT 415.10 371.17 107,252
4/24/2018 1 AM CDT 415.15 371.14 107,293
4/24/2018 2 AM CDT 415.26 371.17 107,442
4/24/2018 3 AM CDT 415.33 371.19 107,781
4/24/2018 4 AM CDT 415.39 371.20 108,011
4/24/2018 5 AM CDT 415.46 371.22 108,213
4/24/2018 6 AM CDT 415.53 371.23 108,499
4/24/2018 7 AM CDT 415.59 371.24 108,711
4/24/2018 8 AM CDT 415.63 371.31 108,870
4/24/2018 9 AM CDT 415.65 371.38 108,984
4/24/2018 10 AM CDT 415.74 371.79 119,382
4/24/2018 11 AM CDT 415.80 371.93 119,459
4/24/2018 12 PM CDT 415.82 372.02 119,486
4/24/2018 1 PM CDT 415.86 372.11 119,473
4/24/2018 2 PM CDT 415.89 372.20 119,613
4/24/2018 3 PM CDT 415.83 372.26 119,555
4/24/2018 4 PM CDT 415.84 372.21 119,488
4/24/2018 5 PM CDT 415.97 372.30 119,718
4/24/2018 6 PM CDT 415.97 372.26 119,875
4/24/2018 7 PM CDT 415.98 372.27 120,001
4/24/2018 8 PM CDT 416.00 372.33 119,965
4/24/2018 9 PM CDT 416.00 372.32 120,065

Elevations are in feet above sea level. Discharges are in cubic feet per second and are reported at the end of the hour.